Time;durP1;ratioP1;P1;durP2;ratioP2;P2;SDS_P1;SDS_P2;PMS_P1;PMS_P2;Temp;Humidity;BMP_temperature;BMP_pressure;BME280_temperature;BME280_humidity;BME280_pressure;Samples;Min_cycle;Max_cycle;Signal;HPM_P1;HPM_P2
2023/04/28 00:00:13;;;;;;;9.48;6.60;;;7.00;99.90;;;;;;5056758;28;20601;-76
2023/04/28 00:02:39;;;;;;;10.02;6.32;;;7.00;99.90;;;;;;5018870;28;20044;-75
2023/04/28 00:05:05;;;;;;;11.45;6.28;;;7.00;99.90;;;;;;5038577;28;20079;-77
2023/04/28 00:07:31;;;;;;;11.77;6.72;;;7.00;99.90;;;;;;5049119;28;20128;-77
2023/04/28 00:10:00;;;;;;;11.13;6.72;;;7.00;99.90;;;;;;5052296;28;20534;-77
2023/04/28 00:12:26;;;;;;;9.23;6.32;;;7.00;99.90;;;;;;5049169;28;20044;-77
2023/04/28 00:14:54;;;;;;;9.43;6.20;;;7.00;99.90;;;;;;5048336;28;20052;-76
2023/04/28 00:17:20;;;;;;;9.18;6.20;;;7.00;99.90;;;;;;5049129;28;20131;-76
2023/04/28 00:19:51;;;;;;;9.50;6.30;;;7.00;99.90;;;;;;5038009;28;20050;-76
2023/04/28 00:22:18;;;;;;;11.90;6.25;;;7.00;99.90;;;;;;5040429;28;20052;-77
2023/04/28 00:24:44;;;;;;;11.95;6.68;;;7.00;99.90;;;;;;5057289;28;21533;-77
2023/04/28 00:27:13;;;;;;;11.82;6.45;;;7.00;99.90;;;;;;5054240;28;20044;-77
2023/04/28 00:29:39;;;;;;;8.95;5.53;;;7.00;99.90;;;;;;5050474;28;20042;-75
2023/04/28 00:32:04;;;;;;;9.20;5.95;;;7.00;99.90;;;;;;5037756;28;20044;-77
2023/04/28 00:34:37;;;;;;;8.20;6.30;;;6.90;99.90;;;;;;5050079;28;20497;-75
2023/04/28 00:37:04;;;;;;;8.85;5.53;;;6.90;99.90;;;;;;5053126;28;20044;-77
2023/04/28 00:39:31;;;;;;;7.30;5.47;;;6.90;99.90;;;;;;5037555;28;20448;-76
2023/04/28 00:41:57;;;;;;;7.75;5.28;;;6.90;99.90;;;;;;5052892;28;20048;-77
2023/04/28 00:44:25;;;;;;;11.10;5.50;;;6.90;99.90;;;;;;5020400;28;20044;-77
2023/04/28 00:46:52;;;;;;;8.18;5.22;;;6.90;99.90;;;;;;5036204;28;20049;-76
2023/04/28 00:49:24;;;;;;;11.40;5.47;;;6.80;99.90;;;;;;5036712;28;20512;-77
2023/04/28 00:51:50;;;;;;;8.75;5.72;;;6.80;99.90;;;;;;5045953;28;20518;-77
2023/04/28 00:54:16;;;;;;;7.28;5.22;;;6.80;99.90;;;;;;5049655;28;20037;-75
2023/04/28 00:56:43;;;;;;;7.18;5.25;;;6.80;99.90;;;;;;5049538;28;20060;-74
2023/04/28 00:59:09;;;;;;;7.72;5.07;;;6.80;99.90;;;;;;5051386;28;20083;-76
2023/04/28 01:01:35;;;;;;;7.70;5.15;;;6.80;99.90;;;;;;5055822;28;20056;-76
2023/04/28 01:04:04;;;;;;;9.82;5.25;;;6.70;99.90;;;;;;5037481;28;20232;-76
2023/04/28 01:06:31;;;;;;;8.20;5.30;;;6.70;99.90;;;;;;5054992;28;20441;-75
2023/04/28 01:08:57;;;;;;;8.98;5.65;;;6.70;99.90;;;;;;5019695;28;20055;-75
2023/04/28 01:11:22;;;;;;;6.63;5.10;;;6.70;99.90;;;;;;5056845;28;20550;-76
2023/04/28 01:13:48;;;;;;;8.80;4.70;;;6.70;99.90;;;;;;5042955;28;20056;-74
2023/04/28 01:16:14;;;;;;;8.07;5.18;;;6.70;99.90;;;;;;5022747;28;20111;-77
2023/04/28 01:18:46;;;;;;;8.80;5.55;;;6.70;99.90;;;;;;5046163;28;20506;-77
2023/04/28 01:21:12;;;;;;;9.30;5.38;;;6.70;99.90;;;;;;5052252;28;20056;-77
2023/04/28 01:23:47;;;;;;;7.90;4.95;;;6.30;99.90;;;;;;5031893;28;20059;-76
2023/04/28 01:26:16;;;;;;;8.38;5.35;;;6.60;99.90;;;;;;5028460;28;20980;-75
2023/04/28 01:28:41;;;;;;;9.57;5.22;;;6.60;99.90;;;;;;5041780;28;20063;-77
2023/04/28 01:31:08;;;;;;;7.25;5.13;;;6.60;99.90;;;;;;5038303;28;20173;-75
2023/04/28 01:33:37;;;;;;;8.15;5.55;;;6.60;99.90;;;;;;5054934;28;20139;-76
2023/04/28 01:36:06;;;;;;;6.82;5.22;;;6.60;99.90;;;;;;5054161;28;20048;-76
2023/04/28 01:38:32;;;;;;;8.23;5.35;;;6.60;99.90;;;;;;5025403;28;20052;-76
2023/04/28 01:40:58;;;;;;;9.02;5.50;;;6.60;99.90;;;;;;5058873;28;20070;-76
2023/04/28 01:43:24;;;;;;;6.80;4.88;;;6.60;99.90;;;;;;5045168;28;20044;-76
2023/04/28 01:45:51;;;;;;;9.63;5.68;;;6.60;99.90;;;;;;5043076;28;20473;-76
2023/04/28 01:48:17;;;;;;;8.57;5.15;;;6.60;99.90;;;;;;5032027;28;20051;-76
2023/04/28 01:50:42;;;;;;;7.50;5.28;;;6.60;99.90;;;;;;5039634;28;20474;-74
2023/04/28 01:53:08;;;;;;;9.13;5.53;;;6.60;99.90;;;;;;5021930;28;20067;-75
2023/04/28 01:55:34;;;;;;;8.13;5.53;;;6.50;99.90;;;;;;5058718;28;20052;-77
2023/04/28 01:58:00;;;;;;;12.10;6.13;;;6.50;99.90;;;;;;5022656;28;20076;-77
2023/04/28 02:00:26;;;;;;;11.30;5.82;;;6.50;99.90;;;;;;5027087;28;20131;-78
2023/04/28 02:02:52;;;;;;;9.30;5.35;;;6.50;99.90;;;;;;5054236;28;20155;-77
2023/04/28 02:05:17;;;;;;;7.65;4.80;;;6.50;99.90;;;;;;5038705;28;20048;-77
2023/04/28 02:07:44;;;;;;;8.48;5.38;;;6.50;99.90;;;;;;5058646;28;20048;-76
2023/04/28 02:10:09;;;;;;;8.73;5.25;;;6.50;99.90;;;;;;5044606;28;20040;-76
2023/04/28 02:12:41;;;;;;;7.45;5.00;;;6.50;99.90;;;;;;5043735;28;20075;-76
2023/04/28 02:15:08;;;;;;;8.45;5.60;;;6.50;99.90;;;;;;5052949;28;20158;-76
2023/04/28 02:17:34;;;;;;;7.30;5.40;;;6.50;99.90;;;;;;5039962;28;20040;-77
2023/04/28 02:20:00;;;;;;;9.85;6.00;;;6.50;99.90;;;;;;5059022;28;20044;-75
2023/04/28 02:22:26;;;;;;;8.38;5.68;;;6.50;99.90;;;;;;5038328;28;20534;-75
2023/04/28 02:24:52;;;;;;;8.23;5.47;;;6.40;99.90;;;;;;5053947;28;20916;-75
2023/04/28 02:27:19;;;;;;;8.95;5.80;;;6.40;99.90;;;;;;5045407;28;22180;-75
2023/04/28 02:29:52;;;;;;;8.38;6.15;;;6.40;99.90;;;;;;5054910;28;20059;-76
2023/04/28 02:32:18;;;;;;;8.85;5.35;;;6.40;99.90;;;;;;5059212;28;20127;-76
2023/04/28 02:34:43;;;;;;;9.45;5.82;;;6.40;99.90;;;;;;5041299;28;20105;-77
2023/04/28 02:37:09;;;;;;;9.25;6.00;;;6.40;99.90;;;;;;5038947;28;20725;-78
2023/04/28 02:39:35;;;;;;;10.55;6.35;;;6.40;99.90;;;;;;5053913;28;20033;-76
2023/04/28 02:42:02;;;;;;;9.95;6.53;;;6.40;99.90;;;;;;5053987;28;20095;-76
2023/04/28 02:44:28;;;;;;;10.40;6.45;;;6.40;99.90;;;;;;5039455;28;20569;-77
2023/04/28 02:46:54;;;;;;;10.40;5.40;;;6.40;99.90;;;;;;5044361;28;21127;-77
2023/04/28 02:49:19;;;;;;;9.75;6.50;;;6.40;99.90;;;;;;5038730;28;20052;-74
2023/04/28 02:51:46;;;;;;;10.25;5.93;;;6.40;99.90;;;;;;5054276;28;20052;-76
2023/04/28 02:54:26;;;;;;;8.30;5.75;;;6.40;99.90;;;;;;5043974;28;20044;-76
2023/04/28 02:56:53;;;;;;;9.45;6.32;;;6.40;99.90;;;;;;5050151;28;20063;-75
2023/04/28 02:59:19;;;;;;;10.27;6.07;;;6.40;99.90;;;;;;5042064;28;20057;-75
2023/04/28 03:01:45;;;;;;;9.88;5.95;;;6.40;99.90;;;;;;5052956;28;21862;-75
2023/04/28 03:04:11;;;;;;;9.38;6.13;;;5.90;99.90;;;;;;5036945;28;20755;-77
2023/04/28 03:06:37;;;;;;;9.75;6.07;;;6.40;99.90;;;;;;5055939;28;20907;-76
2023/04/28 03:09:10;;;;;;;9.57;6.63;;;6.50;99.90;;;;;;5042366;28;20051;-75
2023/04/28 03:11:37;;;;;;;10.45;6.80;;;6.50;99.90;;;;;;5036720;28;20063;-76
2023/04/28 03:14:03;;;;;;;11.27;6.90;;;6.50;99.90;;;;;;5025181;28;20067;-77
2023/04/28 03:16:30;;;;;;;9.68;6.65;;;6.50;99.90;;;;;;5040861;28;20497;-75
2023/04/28 03:18:59;;;;;;;9.70;6.72;;;6.50;99.90;;;;;;5052524;28;20048;-76
2023/04/28 03:21:26;;;;;;;12.55;7.00;;;6.50;99.90;;;;;;5036509;28;20105;-77
2023/04/28 03:23:52;;;;;;;12.80;6.75;;;6.50;99.90;;;;;;5026732;28;20050;-77
2023/04/28 03:26:18;;;;;;;11.43;6.82;;;6.50;99.90;;;;;;5046364;28;20127;-78
2023/04/28 03:28:44;;;;;;;9.02;6.40;;;6.50;99.90;;;;;;5052516;28;20044;-76
2023/04/28 03:31:10;;;;;;;9.90;7.15;;;6.50;99.90;;;;;;5024499;28;20131;-76
2023/04/28 03:33:47;;;;;;;10.55;7.05;;;6.50;99.90;;;;;;5051616;28;20054;-76
2023/04/28 03:36:13;;;;;;;11.57;7.25;;;6.50;99.90;;;;;;5051754;28;20130;-77
2023/04/28 03:38:40;;;;;;;12.30;7.18;;;6.50;99.90;;;;;;5042716;28;20048;-75
2023/04/28 03:41:06;;;;;;;9.82;6.93;;;6.50;99.90;;;;;;5049663;28;20171;-75
2023/04/28 03:43:34;;;;;;;13.15;7.55;;;6.50;99.90;;;;;;5050652;28;20128;-76
2023/04/28 03:46:00;;;;;;;13.93;7.63;;;6.50;99.90;;;;;;5053175;28;20606;-75
2023/04/28 03:48:26;;;;;;;10.23;7.05;;;6.50;99.90;;;;;;5040492;28;20043;-75
2023/04/28 03:50:52;;;;;;;11.98;7.15;;;6.50;99.90;;;;;;5054566;28;20057;-75
2023/04/28 03:53:17;;;;;;;11.30;7.35;;;6.50;99.90;;;;;;5042966;28;20513;-76
2023/04/28 03:55:44;;;;;;;10.63;6.82;;;6.50;99.90;;;;;;5048476;28;20118;-75
2023/04/28 03:58:10;;;;;;;9.15;6.72;;;6.50;99.90;;;;;;5066600;28;20348;-77
2023/04/28 04:00:35;;;;;;;9.90;6.93;;;6.50;99.90;;;;;;5057939;28;20052;-76
2023/04/28 04:03:01;;;;;;;11.55;6.88;;;6.50;99.90;;;;;;5051274;28;20051;-75
2023/04/28 04:05:27;;;;;;;10.90;7.45;;;6.50;99.90;;;;;;5058747;28;20051;-76
2023/04/28 04:07:53;;;;;;;11.30;7.10;;;6.50;99.90;;;;;;5060648;28;20296;-76
2023/04/28 04:10:19;;;;;;;10.63;7.05;;;6.60;99.90;;;;;;5045424;28;20056;-76
2023/04/28 04:12:45;;;;;;;12.23;7.15;;;6.50;99.90;;;;;;5019533;28;20048;-76
2023/04/28 04:15:11;;;;;;;10.85;7.05;;;6.60;99.90;;;;;;5056676;28;20079;-75
2023/04/28 04:17:37;;;;;;;11.25;6.88;;;6.60;99.90;;;;;;5057440;28;20588;-75
2023/04/28 04:20:04;;;;;;;12.13;7.18;;;6.60;99.90;;;;;;5026576;28;20036;-76
2023/04/28 04:22:29;;;;;;;10.90;6.95;;;6.60;99.90;;;;;;5031069;28;20071;-75
2023/04/28 04:24:55;;;;;;;12.02;7.85;;;6.60;99.90;;;;;;5061314;28;20577;-78
2023/04/28 04:27:21;;;;;;;11.00;7.45;;;6.60;99.90;;;;;;5052596;28;20052;-75
2023/04/28 04:29:47;;;;;;;11.70;7.50;;;6.60;99.90;;;;;;5019931;28;20036;-75
2023/04/28 04:32:14;;;;;;;12.80;7.20;;;6.60;99.90;;;;;;5057272;28;20044;-74
2023/04/28 04:34:44;;;;;;;11.23;7.70;;;6.60;99.90;;;;;;5073030;28;20167;-75
2023/04/28 04:37:10;;;;;;;9.80;7.03;;;6.10;99.90;;;;;;5063537;28;20067;-76
2023/04/28 04:39:36;;;;;;;10.13;7.22;;;6.70;99.90;;;;;;5061961;28;20190;-76
2023/04/28 04:42:02;;;;;;;12.18;7.93;;;6.70;99.90;;;;;;5042476;28;20136;-76
2023/04/28 04:44:27;;;;;;;12.23;7.25;;;6.70;99.90;;;;;;5062556;28;20574;-76
2023/04/28 04:46:53;;;;;;;12.73;8.00;;;6.70;99.90;;;;;;5064001;28;20059;-74
2023/04/28 04:49:19;;;;;;;11.30;7.90;;;6.70;99.90;;;;;;5041325;28;20040;-74
2023/04/28 04:51:48;;;;;;;13.07;8.07;;;6.70;99.90;;;;;;5052829;28;20135;-76
2023/04/28 04:54:13;;;;;;;11.60;7.95;;;6.80;99.90;;;;;;5060840;28;20175;-77
2023/04/28 04:56:41;;;;;;;11.95;7.85;;;6.80;99.90;;;;;;5036925;28;20476;-75
2023/04/28 04:59:07;;;;;;;12.13;8.07;;;6.80;99.90;;;;;;5062855;28;20510;-76
2023/04/28 05:01:33;;;;;;;10.95;7.72;;;6.80;99.90;;;;;;5056373;28;20761;-76
2023/04/28 05:03:58;;;;;;;13.73;8.05;;;6.80;99.90;;;;;;5062616;28;20509;-75
2023/04/28 05:06:24;;;;;;;10.98;7.53;;;6.80;99.90;;;;;;5046018;28;20454;-75
2023/04/28 05:08:50;;;;;;;11.43;7.88;;;6.90;99.90;;;;;;5062125;28;20079;-76
2023/04/28 05:11:17;;;;;;;12.68;8.15;;;6.90;99.90;;;;;;5048060;28;20076;-76
2023/04/28 05:13:43;;;;;;;12.77;7.80;;;6.90;99.90;;;;;;5062531;28;20543;-75
2023/04/28 05:16:09;;;;;;;12.20;8.18;;;6.90;99.90;;;;;;5045965;28;20142;-76
2023/04/28 05:18:35;;;;;;;12.15;8.32;;;6.90;99.90;;;;;;5068134;28;20058;-76
2023/04/28 05:21:06;;;;;;;11.18;7.82;;;7.00;99.90;;;;;;5066620;28;20051;-76
2023/04/28 05:23:32;;;;;;;14.90;8.40;;;7.00;99.90;;;;;;5069291;28;20094;-77
2023/04/28 05:25:58;;;;;;;15.07;8.90;;;7.00;99.90;;;;;;5030555;28;20056;-75
2023/04/28 05:28:24;;;;;;;13.88;8.00;;;7.00;99.90;;;;;;5060990;28;20048;-76
2023/04/28 05:30:51;;;;;;;12.50;7.90;;;7.10;99.90;;;;;;5069252;28;20480;-75
2023/04/28 05:33:18;;;;;;;14.25;8.77;;;7.10;99.90;;;;;;5051381;28;20048;-76
2023/04/28 05:35:44;;;;;;;14.48;9.30;;;7.10;99.90;;;;;;5071029;28;20061;-75
2023/04/28 05:38:10;;;;;;;15.48;9.27;;;7.10;99.90;;;;;;5057791;28;20121;-75
2023/04/28 05:40:37;;;;;;;13.32;8.57;;;7.10;99.90;;;;;;5050956;28;20045;-75
2023/04/28 05:43:03;;;;;;;13.48;8.57;;;7.20;99.90;;;;;;5021459;28;20044;-75
2023/04/28 05:45:28;;;;;;;15.07;9.05;;;7.10;99.90;;;;;;5045414;28;20139;-77
2023/04/28 05:48:00;;;;;;;14.15;8.82;;;7.20;99.90;;;;;;5053603;28;20083;-76
2023/04/28 05:50:32;;;;;;;13.25;8.65;;;7.20;99.90;;;;;;5058338;28;20058;-77
2023/04/28 05:52:58;;;;;;;13.60;8.70;;;7.10;99.90;;;;;;5031465;28;20865;-76
2023/04/28 05:55:24;;;;;;;15.20;9.20;;;7.20;99.90;;;;;;5074442;28;20056;-76
2023/04/28 05:57:50;;;;;;;15.70;9.25;;;7.20;99.90;;;;;;5030942;28;20045;-76
2023/04/28 06:00:16;;;;;;;13.27;8.82;;;6.70;99.90;;;;;;5062336;28;20090;-76
2023/04/28 06:02:42;;;;;;;13.15;9.07;;;7.20;99.90;;;;;;5023521;28;20062;-75
2023/04/28 06:05:12;;;;;;;15.85;9.55;;;7.30;99.90;;;;;;5054170;28;20394;-75
2023/04/28 06:07:38;;;;;;;13.27;8.48;;;7.30;99.90;;;;;;5048960;28;20414;-75
2023/04/28 06:10:05;;;;;;;13.40;8.88;;;7.30;99.90;;;;;;5052845;28;20044;-77
2023/04/28 06:12:31;;;;;;;16.58;9.57;;;7.30;99.90;;;;;;5054739;28;20128;-76
2023/04/28 06:14:59;;;;;;;15.68;10.02;;;6.30;99.90;;;;;;5041401;28;20159;-75
2023/04/28 06:17:32;;;;;;;14.68;9.52;;;7.40;99.90;;;;;;5039970;28;20048;-76
2023/04/28 06:19:59;;;;;;;13.18;8.77;;;7.40;99.90;;;;;;5061452;28;20046;-76
2023/04/28 06:22:25;;;;;;;12.90;8.60;;;7.40;99.90;;;;;;5062173;28;20048;-76
2023/04/28 06:24:51;;;;;;;13.88;8.60;;;7.40;99.90;;;;;;5053481;28;20495;-76
2023/04/28 06:27:20;;;;;;;14.65;8.80;;;7.40;99.90;;;;;;5067191;28;20059;-75
2023/04/28 06:29:46;;;;;;;13.65;9.60;;;7.40;99.90;;;;;;5040071;28;20040;-75
2023/04/28 06:32:11;;;;;;;15.45;9.02;;;7.40;99.90;;;;;;5049226;28;20150;-75
2023/04/28 06:34:43;;;;;;;13.93;9.50;;;7.50;99.90;;;;;;5056264;28;20339;-77
2023/04/28 06:37:09;;;;;;;15.10;9.07;;;7.40;99.90;;;;;;5067550;28;20047;-75
2023/04/28 06:39:34;;;;;;;13.70;8.55;;;7.50;99.90;;;;;;5059000;28;20083;-75
2023/04/28 06:42:01;;;;;;;14.95;8.70;;;7.50;99.90;;;;;;5054167;28;20498;-76
2023/04/28 06:44:26;;;;;;;14.52;9.07;;;7.50;99.90;;;;;;5065132;28;20059;-75
2023/04/28 06:46:52;;;;;;;15.68;9.57;;;7.50;99.90;;;;;;5068641;28;20672;-75
2023/04/28 06:49:20;;;;;;;14.18;9.35;;;7.50;99.90;;;;;;5059434;28;20467;-76
2023/04/28 06:51:46;;;;;;;17.05;9.60;;;7.50;99.90;;;;;;5050751;28;20045;-76
2023/04/28 06:54:12;;;;;;;16.15;9.93;;;;;;;;;;5055234;28;20545;-76
2023/04/28 06:56:43;;;;;;;16.80;9.60;;;7.50;99.90;;;;;;5071318;28;20098;-75
2023/04/28 06:59:10;;;;;;;15.60;10.00;;;7.60;99.90;;;;;;5057215;28;20048;-75
2023/04/28 07:01:35;;;;;;;14.93;9.50;;;7.50;99.90;;;;;;5055353;28;20448;-75
2023/04/28 07:04:01;;;;;;;16.65;9.30;;;7.50;99.90;;;;;;5070493;28;20072;-77
2023/04/28 07:06:28;;;;;;;13.35;8.40;;;7.60;99.90;;;;;;5053769;28;20040;-75
2023/04/28 07:08:54;;;;;;;14.00;9.25;;;7.60;99.90;;;;;;5067295;28;20044;-76
2023/04/28 07:11:20;;;;;;;17.80;9.68;;;7.60;99.90;;;;;;5066079;28;21085;-76
2023/04/28 07:13:48;;;;;;;17.67;10.90;;;7.60;99.90;;;;;;5065577;28;20048;-74
2023/04/28 07:16:17;;;;;;;16.08;9.77;;;7.60;99.90;;;;;;5049865;28;20502;-74
2023/04/28 07:18:45;;;;;;;13.60;9.13;;;7.60;99.90;;;;;;5055096;28;20049;-74
2023/04/28 07:21:10;;;;;;;14.43;9.90;;;7.60;99.90;;;;;;5065273;28;20042;-75
2023/04/28 07:23:37;;;;;;;15.63;9.93;;;7.70;99.90;;;;;;5048306;28;20386;-75
2023/04/28 07:26:04;;;;;;;16.10;9.35;;;7.60;99.90;;;;;;5065760;28;20131;-76
2023/04/28 07:28:30;;;;;;;14.50;9.43;;;7.70;99.90;;;;;;5060346;28;20044;-75
2023/04/28 07:31:03;;;;;;;15.95;9.18;;;7.70;99.90;;;;;;5056681;28;20056;-75
2023/04/28 07:33:29;;;;;;;15.77;9.88;;;7.70;99.90;;;;;;5057148;28;20099;-75
2023/04/28 07:35:55;;;;;;;16.10;9.57;;;7.70;99.90;;;;;;5064467;28;20127;-75
2023/04/28 07:38:21;;;;;;;15.07;9.38;;;7.70;99.90;;;;;;5064462;28;20143;-75
2023/04/28 07:40:47;;;;;;;16.92;9.38;;;7.70;99.90;;;;;;5065364;28;20095;-76
2023/04/28 07:43:13;;;;;;;15.32;9.40;;;7.80;99.90;;;;;;5063070;28;20558;-74
2023/04/28 07:45:40;;;;;;;16.00;10.20;;;7.80;99.90;;;;;;5040922;28;20052;-74
2023/04/28 07:48:06;;;;;;;14.57;9.85;;;7.80;99.90;;;;;;5065336;28;20040;-76
2023/04/28 07:50:33;;;;;;;14.13;9.68;;;7.80;99.90;;;;;;5065163;28;20083;-74
2023/04/28 07:52:59;;;;;;;15.35;9.27;;;7.90;99.90;;;;;;5071702;28;20440;-75
2023/04/28 07:55:27;;;;;;;15.07;9.70;;;8.00;99.90;;;;;;5070474;28;20592;-76
2023/04/28 07:57:54;;;;;;;15.18;9.40;;;8.00;99.90;;;;;;5056689;28;20056;-75
2023/04/28 08:00:20;;;;;;;16.75;10.80;;;8.10;99.90;;;;;;5065338;28;20048;-75
2023/04/28 08:02:46;;;;;;;18.08;11.48;;;8.30;99.90;;;;;;5055235;28;20106;-76
2023/04/28 08:05:11;;;;;;;15.80;10.70;;;8.40;99.90;;;;;;5064534;28;20107;-76
2023/04/28 08:07:37;;;;;;;15.35;10.25;;;8.60;99.90;;;;;;5064271;28;20036;-76
2023/04/28 08:10:05;;;;;;;16.85;10.23;;;8.70;99.90;;;;;;5063404;28;20131;-75
2023/04/28 08:12:31;;;;;;;15.48;10.23;;;8.70;99.90;;;;;;5059824;28;20056;-76
2023/04/28 08:14:57;;;;;;;15.00;9.88;;;8.70;99.90;;;;;;5072261;28;20049;-76
2023/04/28 08:17:24;;;;;;;15.55;10.40;;;8.80;99.90;;;;;;5052481;28;21184;-76
2023/04/28 08:19:50;;;;;;;15.32;9.68;;;8.80;99.90;;;;;;5061907;28;20044;-75
2023/04/28 08:22:16;;;;;;;15.18;9.38;;;8.80;99.90;;;;;;5058637;28;20048;-75
2023/04/28 08:24:42;;;;;;;14.80;9.90;;;8.80;99.90;;;;;;5056687;28;20101;-76
2023/04/28 08:27:07;;;;;;;14.35;9.77;;;8.80;99.90;;;;;;5064165;28;20071;-75
2023/04/28 08:29:33;;;;;;;14.55;9.93;;;8.90;99.90;;;;;;5055105;28;20044;-75
2023/04/28 08:32:01;;;;;;;13.82;9.88;;;8.90;99.90;;;;;;5068563;28;20135;-75
2023/04/28 08:34:29;;;;;;;16.65;10.70;;;9.00;99.90;;;;;;5070095;28;20044;-75
2023/04/28 08:36:55;;;;;;;14.25;9.63;;;9.10;99.90;;;;;;5063403;28;20052;-75
2023/04/28 08:39:25;;;;;;;15.27;10.13;;;9.20;99.90;;;;;;5065842;28;20479;-76
2023/04/28 08:41:52;;;;;;;14.55;9.98;;;9.30;99.90;;;;;;5063815;28;20044;-76
2023/04/28 08:44:18;;;;;;;16.40;11.27;;;9.50;99.90;;;;;;5053780;28;20052;-74
2023/04/28 08:46:46;;;;;;;15.35;10.38;;;9.60;99.90;;;;;;5068095;28;20080;-75
2023/04/28 08:49:15;;;;;;;16.33;10.68;;;9.60;99.90;;;;;;5069682;28;20467;-75
2023/04/28 08:51:59;;;;;;;15.13;10.57;;;9.80;99.90;;;;;;5049407;28;20071;-75
2023/04/28 08:54:35;;;;;;;13.68;10.07;;;10.00;99.90;;;;;;5058831;28;20052;-76
2023/04/28 08:57:10;;;;;;;17.63;9.73;;;10.20;99.90;;;;;;5065000;28;20058;-77
2023/04/28 08:59:40;;;;;;;15.60;10.10;;;10.40;99.90;;;;;;5063773;28;20048;-75
2023/04/28 09:02:07;;;;;;;14.45;9.55;;;10.70;99.90;;;;;;5065062;28;20150;-75
2023/04/28 09:04:34;;;;;;;16.73;9.63;;;10.90;99.90;;;;;;5070674;28;20478;-76
2023/04/28 09:07:00;;;;;;;16.45;10.77;;;11.10;99.90;;;;;;5063825;28;20040;-76
2023/04/28 09:09:29;;;;;;;13.52;9.93;;;11.30;99.90;;;;;;5036247;28;20046;-76
2023/04/28 09:11:58;;;;;;;13.82;9.45;;;11.30;99.90;;;;;;5063446;28;20057;-76
2023/04/28 09:14:29;;;;;;;14.52;10.00;;;11.30;99.90;;;;;;5055899;28;20091;-76
2023/04/28 09:16:56;;;;;;;14.38;9.68;;;11.20;99.90;;;;;;5048464;28;20127;-76
2023/04/28 09:19:22;;;;;;;15.40;9.98;;;11.10;99.90;;;;;;5039822;28;20035;-77
2023/04/28 09:21:56;;;;;;;15.45;10.30;;;11.10;99.90;;;;;;5047272;28;20518;-76
2023/04/28 09:24:32;;;;;;;16.08;10.43;;;11.10;99.90;;;;;;5030586;28;20075;-76
2023/04/28 09:27:03;;;;;;;14.00;9.70;;;11.10;99.90;;;;;;5080984;28;20067;-76
2023/04/28 09:29:32;;;;;;;15.88;10.40;;;11.10;99.90;;;;;;5059483;28;20043;-77
2023/04/28 09:32:20;;;;;;;17.83;10.00;;;11.10;99.90;;;;;;5061751;28;20044;-77
2023/04/28 09:35:03;;;;;;;15.02;9.75;;;11.10;99.90;;;;;;5064074;28;20044;-75
2023/04/28 09:37:30;;;;;;;14.20;10.27;;;11.00;99.90;;;;;;5058634;28;20078;-76
2023/04/28 09:40:04;;;;;;;14.27;10.48;;;11.00;99.90;;;;;;5063428;28;20448;-76
2023/04/28 09:42:45;;;;;;;17.05;11.00;;;10.90;99.90;;;;;;5053757;28;20452;-76
2023/04/28 09:45:15;;;;;;;13.43;10.55;;;11.00;99.90;;;;;;5066851;28;20098;-77
2023/04/28 09:47:43;;;;;;;14.98;10.23;;;10.90;99.90;;;;;;5063088;28;20044;-76
2023/04/28 09:50:13;;;;;;;14.98;10.77;;;10.90;99.90;;;;;;5048987;28;20044;-76
2023/04/28 09:52:44;;;;;;;14.75;10.40;;;10.80;99.90;;;;;;5067850;28;20043;-76
2023/04/28 09:55:11;;;;;;;14.73;10.38;;;10.80;99.90;;;;;;5076964;28;20048;-75
2023/04/28 09:57:48;;;;;;;14.43;10.63;;;10.90;99.90;;;;;;5068017;28;20076;-75
2023/04/28 10:00:15;;;;;;;14.30;10.25;;;10.90;99.90;;;;;;5053510;28;20494;-74
2023/04/28 10:02:42;;;;;;;15.48;11.07;;;11.00;99.90;;;;;;5068260;28;20098;-75
2023/04/28 10:05:08;;;;;;;16.15;10.68;;;10.90;99.90;;;;;;5074176;28;20051;-74
2023/04/28 10:07:35;;;;;;;18.83;10.75;;;11.00;99.90;;;;;;5059765;28;20479;-76
2023/04/28 10:10:00;;;;;;;15.23;10.90;;;11.00;99.90;;;;;;5050476;28;20074;-77
2023/04/28 10:12:27;;;;;;;14.40;9.65;;;11.00;99.90;;;;;;5067719;28;20068;-75
2023/04/28 10:14:57;;;;;;;14.30;10.77;;;10.90;99.90;;;;;;5069242;28;20048;-76
2023/04/28 10:17:24;;;;;;;13.77;10.75;;;10.90;99.90;;;;;;5049408;28;20063;-76
2023/04/28 10:19:53;;;;;;;13.85;9.93;;;10.90;99.90;;;;;;5068104;28;20053;-76
2023/04/28 10:22:56;;;;;;;15.50;10.98;;;10.90;99.90;;;;;;5042346;28;20490;-76
2023/04/28 10:25:34;;;;;;;14.45;10.85;;;10.90;99.90;;;;;;5050700;28;20128;-74
2023/04/28 10:28:07;;;;;;;15.98;10.57;;;10.90;99.90;;;;;;5066300;28;20067;-75
2023/04/28 10:30:39;;;;;;;15.30;10.68;;;10.90;99.90;;;;;;5077447;28;20113;-75
2023/04/28 10:33:10;;;;;;;15.73;11.40;;;11.00;99.90;;;;;;5059834;28;21879;-76
2023/04/28 10:35:44;;;;;;;13.35;9.85;;;11.10;99.90;;;;;;5078418;28;20098;-76
2023/04/28 10:38:20;;;;;;;15.82;11.27;;;11.10;99.90;;;;;;5035445;28;20058;-75
2023/04/28 10:41:01;;;;;;;16.73;11.40;;;11.30;99.90;;;;;;5041214;28;20051;-77
2023/04/28 10:43:39;;;;;;;14.73;10.88;;;11.30;99.90;;;;;;5066932;28;20052;-77
2023/04/28 10:46:06;;;;;;;13.52;10.18;;;11.30;99.90;;;;;;5069230;28;20047;-76
2023/04/28 10:48:32;;;;;;;18.70;11.57;;;11.30;99.90;;;;;;5079641;28;20041;-77
2023/04/28 10:51:16;;;;;;;17.38;10.90;;;11.20;99.90;;;;;;5062251;28;20059;-74
2023/04/28 10:53:45;;;;;;;14.98;11.10;;;11.20;99.90;;;;;;5067418;28;20052;-76
2023/04/28 10:56:23;;;;;;;15.30;10.65;;;11.90;99.90;;;;;;5061334;28;20152;-75
2023/04/28 10:58:54;;;;;;;17.83;10.75;;;11.20;99.90;;;;;;5054107;28;20041;-76
2023/04/28 11:01:39;;;;;;;13.63;11.07;;;11.20;99.90;;;;;;5082139;28;20044;-76
2023/04/28 11:04:10;;;;;;;17.35;11.77;;;11.30;99.90;;;;;;5052992;28;22228;-75
2023/04/28 11:06:42;;;;;;;15.93;11.30;;;11.30;99.90;;;;;;5061616;28;20127;-76
2023/04/28 11:09:14;;;;;;;16.35;12.57;;;11.40;99.90;;;;;;5034963;28;20102;-76
2023/04/28 11:12:00;;;;;;;19.30;13.15;;;11.60;99.90;;;;;;5073699;28;20048;-76
2023/04/28 11:14:33;;;;;;;17.83;11.88;;;11.90;99.90;;;;;;5065881;28;20193;-74
2023/04/28 11:17:07;;;;;;;18.80;12.52;;;12.10;99.90;;;;;;5061010;28;20074;-75
2023/04/28 11:19:40;;;;;;;16.75;12.60;;;12.20;99.90;;;;;;5051807;28;20048;-77
2023/04/28 11:22:26;;;;;;;16.98;12.20;;;12.30;99.90;;;;;;5048286;28;20055;-75
2023/04/28 11:25:00;;;;;;;17.35;11.73;;;12.30;99.90;;;;;;5040514;28;20067;-75
2023/04/28 11:27:27;;;;;;;15.32;11.77;;;12.30;99.90;;;;;;5058570;28;20124;-75
2023/04/28 11:29:53;;;;;;;16.15;11.90;;;12.30;99.90;;;;;;5047995;28;20052;-76
2023/04/28 11:32:28;;;;;;;15.50;12.45;;;12.20;99.90;;;;;;5049972;28;20102;-76
2023/04/28 11:35:03;;;;;;;17.80;11.80;;;12.20;99.90;;;;;;5057835;28;21164;-76
2023/04/28 11:37:32;;;;;;;18.75;12.55;;;12.10;99.90;;;;;;5034116;28;20057;-76
2023/04/28 11:40:08;;;;;;;18.10;11.45;;;12.10;99.90;;;;;;5002097;28;20065;-75
2023/04/28 11:42:34;;;;;;;15.57;11.05;;;12.10;99.90;;;;;;5034385;28;20064;-75
2023/04/28 11:45:00;;;;;;;17.23;11.05;;;11.90;99.90;;;;;;5039609;28;20047;-75
2023/04/28 11:47:30;;;;;;;17.70;12.65;;;11.90;99.90;;;;;;5022626;28;20121;-75
2023/04/28 11:49:56;;;;;;;15.20;11.52;;;11.90;99.90;;;;;;5026133;28;20083;-75
2023/04/28 11:52:22;;;;;;;16.52;11.07;;;11.90;99.90;;;;;;5039441;28;20519;-74
2023/04/28 11:54:56;;;;;;;17.45;11.52;;;11.80;99.90;;;;;;5039558;28;20052;-76
2023/04/28 11:57:22;;;;;;;15.80;11.70;;;11.80;99.90;;;;;;5037151;28;20059;-76
2023/04/28 11:59:50;;;;;;;16.80;11.55;;;11.80;99.90;;;;;;5038825;28;20202;-76
2023/04/28 12:02:29;;;;;;;17.40;11.52;;;11.70;99.90;;;;;;5024548;28;20048;-75
2023/04/28 12:05:04;;;;;;;14.35;11.00;;;11.60;99.90;;;;;;5019823;28;20082;-78
2023/04/28 12:07:43;;;;;;;14.73;10.73;;;11.30;99.90;;;;;;5036529;28;20434;-75
2023/04/28 12:10:14;;;;;;;15.25;11.32;;;11.50;99.90;;;;;;5072855;28;20048;-76
2023/04/28 12:12:41;;;;;;;14.45;11.23;;;11.50;99.90;;;;;;5056013;28;20075;-77
2023/04/28 12:15:12;;;;;;;15.40;11.45;;;11.50;99.90;;;;;;5057799;28;20055;-77
2023/04/28 12:17:43;;;;;;;15.45;11.45;;;11.40;99.90;;;;;;5076165;28;20044;-77
2023/04/28 12:20:37;;;;;;;16.88;11.15;;;11.50;99.90;;;;;;5025210;28;21152;-78
2023/04/28 12:23:04;;;;;;;16.10;11.55;;;11.50;99.90;;;;;;5059493;28;20048;-78
2023/04/28 12:25:29;;;;;;;14.75;11.52;;;11.50;99.90;;;;;;5043189;28;20048;-78
2023/04/28 12:28:06;;;;;;;14.13;11.02;;;11.50;99.90;;;;;;5065828;28;20056;-78
2023/04/28 12:30:42;;;;;;;16.52;12.55;;;11.50;99.90;;;;;;5048582;28;20059;-77
2023/04/28 12:33:28;;;;;;;15.43;12.07;;;11.50;99.90;;;;;;5048130;28;20067;-78
2023/04/28 12:35:55;;;;;;;15.20;11.50;;;11.50;99.90;;;;;;5048830;28;20067;-77
2023/04/28 12:38:23;;;;;;;16.20;11.75;;;11.50;99.90;;;;;;5048090;28;20043;-78
2023/04/28 12:40:49;;;;;;;16.27;12.10;;;11.50;99.90;;;;;;5056063;28;20509;-78
2023/04/28 12:43:15;;;;;;;15.02;11.32;;;11.50;99.90;;;;;;5063238;28;20056;-79
2023/04/28 12:45:44;;;;;;;15.23;11.50;;;11.50;99.90;;;;;;5054210;28;20048;-79
2023/04/28 12:48:09;;;;;;;16.88;12.20;;;11.50;99.90;;;;;;5054573;28;20605;-78